Time;durP1;ratioP1;P1;durP2;ratioP2;P2;SDS_P1;SDS_P2;PMS_P1;PMS_P2;Temp;Humidity;BMP_temperature;BMP_pressure;BME280_temperature;BME280_humidity;BME280_pressure;Samples;Min_cycle;Max_cycle;Signal;HPM_P1;HPM_P2
2021/09/28 00:00:50;;;;;;;7.43;6.83;;;20.70;44.80;;;;;;10478957;28;20224;-79
2021/09/28 00:05:53;;;;;;;7.47;6.80;;;20.70;44.60;;;;;;10475731;28;20221;-79
2021/09/28 00:10:58;;;;;;;7.13;6.53;;;20.60;44.60;;;;;;10488081;28;20716;-78
2021/09/28 00:16:01;;;;;;;7.37;6.67;;;20.60;44.90;;;;;;10487067;28;20228;-78
2021/09/28 00:21:04;;;;;;;6.90;6.30;;;20.60;44.60;;;;;;10478934;28;20231;-79
2021/09/28 00:26:09;;;;;;;7.40;6.70;;;20.60;44.60;;;;;;10477085;28;20597;-79
2021/09/28 00:31:12;;;;;;;6.97;6.30;;;20.60;44.70;;;;;;10484078;28;20224;-79
2021/09/28 00:36:15;;;;;;;7.47;6.83;;;20.60;44.40;;;;;;10477431;28;20712;-79
2021/09/28 00:41:20;;;;;;;7.23;6.47;;;20.50;44.30;;;;;;10483680;28;20235;-79
2021/09/28 00:46:24;;;;;;;7.27;6.67;;;20.50;44.40;;;;;;10486235;28;20685;-79
2021/09/28 00:51:27;;;;;;;7.67;7.07;;;20.40;44.20;;;;;;10487492;28;20228;-79
2021/09/28 00:56:31;;;;;;;7.90;6.90;;;20.40;44.30;;;;;;10477879;28;20232;-79
2021/09/28 01:01:35;;;;;;;7.97;7.23;;;20.30;44.50;;;;;;10481785;28;20236;-79
2021/09/28 01:06:39;;;;;;;7.67;6.97;;;20.20;44.30;;;;;;10481593;28;20228;-79
2021/09/28 01:11:44;;;;;;;8.27;7.47;;;20.20;44.40;;;;;;10486958;28;20258;-79
2021/09/28 01:16:47;;;;;;;8.43;7.63;;;20.20;44.70;;;;;;10476182;28;20973;-79
2021/09/28 01:21:52;;;;;;;8.67;7.87;;;20.10;44.70;;;;;;10472785;28;20685;-79
2021/09/28 01:26:55;;;;;;;7.93;7.13;;;20.00;45.00;;;;;;10470572;28;20239;-79
2021/09/28 01:31:59;;;;;;;9.10;7.63;;;20.00;44.70;;;;;;10474438;28;20224;-79
2021/09/28 01:37:04;;;;;;;7.83;7.13;;;20.00;44.90;;;;;;10475260;28;20228;-79
2021/09/28 01:42:07;;;;;;;7.90;7.30;;;19.90;45.10;;;;;;10481068;28;20275;-79
2021/09/28 01:47:10;;;;;;;8.90;8.17;;;19.90;44.80;;;;;;10483546;28;20730;-79
2021/09/28 01:52:14;;;;;;;7.70;7.00;;;19.90;44.80;;;;;;10480734;28;20239;-79
2021/09/28 01:57:18;;;;;;;10.23;7.90;;;19.90;45.20;;;;;;10488633;28;20236;-79
2021/09/28 02:02:21;;;;;;;8.73;7.93;;;19.90;45.00;;;;;;10496761;28;20224;-79
2021/09/28 02:07:26;;;;;;;10.67;8.13;;;19.80;44.80;;;;;;10492671;28;20228;-79
2021/09/28 02:12:29;;;;;;;9.03;8.23;;;19.70;45.10;;;;;;10479479;28;20777;-79
2021/09/28 02:17:32;;;;;;;8.40;7.60;;;19.70;44.90;;;;;;10482983;28;20767;-79
2021/09/28 02:22:37;;;;;;;8.00;7.17;;;19.70;45.00;;;;;;10487071;28;20228;-79
2021/09/28 02:27:41;;;;;;;7.77;7.17;;;19.60;45.10;;;;;;10491785;28;20227;-79
2021/09/28 02:32:44;;;;;;;8.43;7.73;;;19.60;44.90;;;;;;10486774;28;20243;-78
2021/09/28 02:37:48;;;;;;;8.37;7.57;;;19.60;44.80;;;;;;10477730;28;20247;-79
2021/09/28 02:42:52;;;;;;;8.63;7.83;;;19.60;44.90;;;;;;10482721;28;20231;-79
2021/09/28 02:47:55;;;;;;;8.77;7.90;;;19.60;44.80;;;;;;10489488;28;20236;-79
2021/09/28 02:52:59;;;;;;;9.33;8.43;;;19.60;44.80;;;;;;10489523;28;20239;-79
2021/09/28 02:58:02;;;;;;;8.10;7.40;;;19.50;44.70;;;;;;10483706;28;20232;-79
2021/09/28 03:03:06;;;;;;;11.20;9.30;;;19.40;44.60;;;;;;10492633;28;20545;-79
2021/09/28 03:08:11;;;;;;;10.07;9.13;;;19.40;44.70;;;;;;10486309;28;20224;-80
2021/09/28 03:13:14;;;;;;;10.33;9.40;;;19.40;45.10;;;;;;10484308;28;20255;-79
2021/09/28 03:18:17;;;;;;;10.40;9.43;;;19.30;44.90;;;;;;10479095;28;20319;-80
2021/09/28 03:23:22;;;;;;;11.10;10.00;;;19.20;45.00;;;;;;10483316;28;20707;-79
2021/09/28 03:28:25;;;;;;;12.07;10.60;;;19.10;45.50;;;;;;10476406;28;20707;-79
2021/09/28 03:33:29;;;;;;;11.57;10.57;;;19.10;45.40;;;;;;10478492;28;20227;-78
2021/09/28 03:38:33;;;;;;;10.97;9.97;;;19.10;45.50;;;;;;10483526;28;20224;-78
2021/09/28 03:43:36;;;;;;;11.23;10.23;;;19.10;45.80;;;;;;10482231;28;20696;-79
2021/09/28 03:48:40;;;;;;;9.97;9.10;;;19.00;45.30;;;;;;10479058;28;20220;-79
2021/09/28 03:53:44;;;;;;;10.20;9.20;;;19.00;45.30;;;;;;10483613;28;20224;-79
2021/09/28 03:58:47;;;;;;;9.90;8.73;;;19.00;45.50;;;;;;10484816;28;20744;-79
2021/09/28 04:03:51;;;;;;;9.60;8.57;;;18.90;45.20;;;;;;10482830;28;20235;-78
2021/09/28 04:08:56;;;;;;;8.90;8.00;;;18.80;45.20;;;;;;10483051;28;20235;-79
2021/09/28 04:13:59;;;;;;;9.40;8.60;;;18.80;45.60;;;;;;10479189;28;20234;-79
2021/09/28 04:19:02;;;;;;;9.63;8.63;;;18.70;45.50;;;;;;10481629;28;20220;-79
2021/09/28 04:24:07;;;;;;;8.60;7.80;;;18.70;45.80;;;;;;10480154;28;20258;-79
2021/09/28 04:29:11;;;;;;;8.40;7.60;;;18.70;46.90;;;;;;10476150;28;20234;-79
2021/09/28 04:34:14;;;;;;;6.60;6.10;;;18.70;46.60;;;;;;10479694;28;20228;-79
2021/09/28 04:39:18;;;;;;;7.43;6.73;;;18.80;46.80;;;;;;10473329;28;20232;-79
2021/09/28 04:44:22;;;;;;;7.67;6.97;;;18.80;47.70;;;;;;10482914;28;20247;-79
2021/09/28 04:49:25;;;;;;;6.20;5.70;;;18.80;47.20;;;;;;10482638;28;20235;-79
2021/09/28 04:54:29;;;;;;;6.13;5.63;;;18.80;47.30;;;;;;10480458;28;20224;-79
2021/09/28 04:59:33;;;;;;;6.23;5.73;;;18.80;47.70;;;;;;10490599;28;20315;-79
2021/09/28 05:04:36;;;;;;;6.23;5.70;;;18.90;47.40;;;;;;10472353;28;20224;-78
2021/09/28 05:09:41;;;;;;;5.50;5.00;;;18.90;47.40;;;;;;10471558;28;20590;-78
2021/09/28 05:14:44;;;;;;;5.50;5.00;;;19.00;47.80;;;;;;10478305;28;20231;-78
2021/09/28 05:19:47;;;;;;;5.10;4.60;;;18.90;47.80;;;;;;10478326;28;20871;-78
2021/09/28 05:24:54;;;;;;;6.40;4.20;;;19.00;47.20;;;;;;10474410;28;20813;-78
2021/09/28 05:29:57;;;;;;;3.80;3.20;;;19.00;47.00;;;;;;10487930;28;20270;-78
2021/09/28 05:35:01;;;;;;;3.23;2.77;;;19.00;46.50;;;;;;10481881;28;20312;-78
2021/09/28 05:40:07;;;;;;;1.60;1.50;;;19.00;46.10;;;;;;10485066;28;20373;-78
2021/09/28 05:45:10;;;;;;;1.60;1.50;;;18.90;45.50;;;;;;10479957;28;20229;-78
2021/09/28 05:50:14;;;;;;;1.40;1.30;;;18.90;45.50;;;;;;10484432;28;20231;-78
2021/09/28 05:55:19;;;;;;;1.27;1.10;;;18.80;45.90;;;;;;10486975;28;20238;-78
2021/09/28 06:00:22;;;;;;;1.40;1.10;;;18.70;45.40;;;;;;10479392;28;20252;-79
2021/09/28 06:05:25;;;;;;;2.13;1.00;;;18.60;45.30;;;;;;10477193;28;20231;-77
2021/09/28 06:10:30;;;;;;;1.33;0.90;;;18.50;45.40;;;;;;10477607;28;20597;-76
2021/09/28 06:15:34;;;;;;;0.80;0.80;;;18.50;45.40;;;;;;10488863;28;20303;-77
2021/09/28 06:20:37;;;;;;;2.30;0.97;;;18.50;45.50;;;;;;10486721;28;20293;-76
2021/09/28 06:25:42;;;;;;;1.43;0.80;;;18.50;45.40;;;;;;10480379;28;20229;-76
2021/09/28 06:30:45;;;;;;;1.17;0.90;;;18.50;45.30;;;;;;10482259;28;20227;-76
2021/09/28 06:35:49;;;;;;;0.87;0.80;;;18.50;45.20;;;;;;10483437;28;20215;-76
2021/09/28 06:40:54;;;;;;;1.13;1.00;;;18.50;45.00;;;;;;10480730;28;20236;-78
2021/09/28 06:45:58;;;;;;;2.23;1.10;;;18.40;44.80;;;;;;10478774;28;20225;-76
2021/09/28 06:51:02;;;;;;;1.00;1.00;;;18.30;44.80;;;;;;10485320;28;20221;-78
2021/09/28 06:56:07;;;;;;;1.50;1.40;;;18.10;44.70;;;;;;10489788;28;20228;-74
2021/09/28 07:01:10;;;;;;;1.73;1.57;;;18.00;45.00;;;;;;10483154;28;20751;-76
2021/09/28 07:06:13;;;;;;;2.33;1.60;;;18.00;45.00;;;;;;10480480;28;20236;-76
2021/09/28 07:11:19;;;;;;;1.47;1.37;;;17.90;45.00;;;;;;10478482;28;20228;-77
2021/09/28 07:16:22;;;;;;;2.40;1.50;;;17.90;45.30;;;;;;10475009;28;20224;-76
2021/09/28 07:21:26;;;;;;;1.83;1.57;;;17.90;45.20;;;;;;10482325;28;20625;-75
2021/09/28 07:26:31;;;;;;;2.70;1.63;;;17.90;45.20;;;;;;10481547;28;20228;-78
2021/09/28 07:31:34;;;;;;;1.77;1.63;;;17.90;45.40;;;;;;10479520;28;20219;-81
2021/09/28 07:36:38;;;;;;;2.40;1.77;;;17.90;44.90;;;;;;10469674;28;20244;-78
2021/09/28 07:41:43;;;;;;;1.70;1.60;;;17.90;45.10;;;;;;10478470;28;20268;-78
2021/09/28 07:46:46;;;;;;;3.33;2.10;;;17.90;45.40;;;;;;10482107;28;20235;-80
2021/09/28 07:51:49;;;;;;;3.43;2.17;;;17.90;45.00;;;;;;10479058;28;20221;-77
2021/09/28 07:56:54;;;;;;;2.20;2.00;;;17.80;44.70;;;;;;10485004;28;20227;-77
2021/09/28 08:01:57;;;;;;;2.50;2.30;;;17.80;44.80;;;;;;10482042;28;20255;-77
2021/09/28 08:07:01;;;;;;;2.50;2.30;;;17.90;45.20;;;;;;10471447;28;20224;-76
2021/09/28 08:12:07;;;;;;;2.20;2.00;;;17.90;45.10;;;;;;10477390;28;20220;-76
2021/09/28 08:17:10;;;;;;;2.97;2.40;;;17.90;45.00;;;;;;10479589;28;20217;-77
2021/09/28 08:22:14;;;;;;;2.73;2.50;;;18.00;45.20;;;;;;10481864;28;20220;-77
2021/09/28 08:32:39;;;;;;;3.70;3.40;;;18.10;44.80;;;;;;10482081;28;20783;-76
2021/09/28 08:37:43;;;;;;;2.80;2.60;;;18.10;44.70;;;;;;10467562;28;20593;-76
2021/09/28 08:42:52;;;;;;;3.37;2.70;;;18.10;44.40;;;;;;10490924;28;20607;-77
2021/09/28 08:47:55;;;;;;;3.57;2.77;;;18.10;44.80;;;;;;10487546;28;20229;-78
2021/09/28 08:52:59;;;;;;;3.20;2.90;;;18.20;44.60;;;;;;10482982;28;20605;-79
2021/09/28 08:58:16;;;;;;;3.17;2.87;;;18.30;44.60;;;;;;10483811;28;20246;-78
2021/09/28 09:03:27;;;;;;;3.37;3.07;;;18.30;43.90;;;;;;10484645;28;20229;-82
2021/09/28 09:08:34;;;;;;;3.27;2.97;;;18.40;43.70;;;;;;10480182;28;20363;-76
2021/09/28 09:13:41;;;;;;;6.97;3.37;;;18.40;43.50;;;;;;10477537;28;20252;-77
2021/09/28 09:18:46;;;;;;;3.40;3.10;;;18.40;43.50;;;;;;10481735;28;20251;-76
2021/09/28 09:23:53;;;;;;;4.90;3.80;;;18.40;44.10;;;;;;10479199;28;20234;-79
2021/09/28 09:28:59;;;;;;;4.67;3.60;;;18.40;43.30;;;;;;10477198;28;20226;-78
2021/09/28 09:34:10;;;;;;;3.73;3.10;;;18.50;43.60;;;;;;10475840;28;20235;-77
2021/09/28 09:39:13;;;;;;;4.87;3.73;;;18.60;43.40;;;;;;10476097;28;20235;-77
2021/09/28 09:44:18;;;;;;;3.90;3.50;;;18.70;43.80;;;;;;10478438;28;20233;-78
2021/09/28 09:49:23;;;;;;;3.47;3.17;;;18.80;43.20;;;;;;10473792;28;20704;-78
2021/09/28 09:54:31;;;;;;;4.83;3.80;;;18.90;43.90;;;;;;10474321;28;20228;-80
2021/09/28 09:59:37;;;;;;;3.83;3.13;;;18.90;42.70;;;;;;10475927;28;20224;-79
2021/09/28 10:04:40;;;;;;;3.97;3.30;;;19.00;43.00;;;;;;10479841;28;20224;-77
2021/09/28 10:09:48;;;;;;;3.27;3.07;;;19.10;43.20;;;;;;10479948;28;20283;-77
2021/09/28 10:15:06;;;;;;;4.10;3.70;;;19.20;42.60;;;;;;10490329;28;20238;-77
2021/09/28 10:20:11;;;;;;;4.83;4.10;;;19.20;41.40;;;;;;10515067;28;20242;-78
2021/09/28 10:25:35;;;;;;;4.20;3.80;;;19.30;42.90;;;;;;10494022;28;20234;-77
2021/09/28 10:30:45;;;;;;;3.97;3.67;;;19.30;41.50;;;;;;10493454;28;20937;-77
2021/09/28 10:35:55;;;;;;;4.20;3.90;;;19.40;40.70;;;;;;10481481;28;20224;-78
2021/09/28 10:40:58;;;;;;;4.83;3.93;;;19.40;42.30;;;;;;10507942;28;20303;-77
2021/09/28 10:46:05;;;;;;;3.70;3.40;;;19.60;42.50;;;;;;10493146;28;20247;-77
2021/09/28 10:51:14;;;;;;;3.47;3.10;;;19.60;41.00;;;;;;10489825;28;20233;-77
2021/09/28 10:56:18;;;;;;;3.93;3.40;;;19.70;41.40;;;;;;10486600;28;20882;-77
2021/09/28 11:01:26;;;;;;;3.90;3.20;;;19.70;41.60;;;;;;10479002;28;20242;-78
2021/09/28 11:06:52;;;;;;;3.17;2.97;;;19.80;40.70;;;;;;10483358;28;20235;-78
2021/09/28 11:11:58;;;;;;;3.83;3.40;;;19.90;40.40;;;;;;10475677;28;20224;-78
2021/09/28 11:17:03;;;;;;;3.53;3.23;;;20.00;40.60;;;;;;10473009;28;20236;-76
2021/09/28 11:22:08;;;;;;;3.67;3.33;;;20.10;40.80;;;;;;10482900;28;20239;-76
2021/09/28 11:27:13;;;;;;;5.67;3.33;;;20.10;40.80;;;;;;10507170;28;20260;-78
2021/09/28 11:32:18;;;;;;;4.10;3.43;;;20.20;40.80;;;;;;10483847;28;20235;-79
2021/09/28 11:37:22;;;;;;;6.43;3.97;;;20.30;40.00;;;;;;10471552;28;20239;-78
2021/09/28 11:42:32;;;;;;;3.90;3.40;;;20.30;40.20;;;;;;10483361;28;20252;-78
2021/09/28 11:47:40;;;;;;;3.67;3.37;;;20.40;39.90;;;;;;10458394;28;20224;-79
2021/09/28 11:52:44;;;;;;;3.87;3.50;;;20.50;40.10;;;;;;10478666;28;20246;-78
2021/09/28 11:57:48;;;;;;;3.90;3.40;;;20.60;40.10;;;;;;10479551;28;20224;-79
2021/09/28 12:03:04;;;;;;;6.67;3.63;;;20.70;40.40;;;;;;10486210;28;20216;-78
2021/09/28 12:08:21;;;;;;;4.00;3.43;;;20.80;38.70;;;;;;10511232;28;20228;-78
2021/09/28 12:13:27;;;;;;;3.57;3.27;;;20.80;38.70;;;;;;10487459;28;20691;-79
2021/09/28 12:18:33;;;;;;;3.60;3.30;;;20.90;39.20;;;;;;10467557;28;20232;-80
2021/09/28 12:23:36;;;;;;;3.40;3.10;;;20.90;38.80;;;;;;10465909;28;20221;-78
2021/09/28 12:28:41;;;;;;;3.33;3.10;;;20.90;39.40;;;;;;10466857;28;20227;-77
2021/09/28 12:33:57;;;;;;;3.43;3.13;;;20.80;38.30;;;;;;10467023;28;20224;-81
2021/09/28 12:39:19;;;;;;;3.57;2.60;;;20.80;38.10;;;;;;10463826;28;20323;-77
2021/09/28 12:44:23;;;;;;;3.43;3.13;;;20.80;38.60;;;;;;10457167;28;20315;-80
2021/09/28 12:49:29;;;;;;;3.40;3.00;;;20.90;39.50;;;;;;10460359;28;20239;-80
2021/09/28 12:54:33;;;;;;;3.53;3.33;;;21.00;38.60;;;;;;10457012;28;20223;-79
2021/09/28 12:59:36;;;;;;;3.27;2.87;;;21.00;38.90;;;;;;10462952;28;20228;-77
2021/09/28 13:04:40;;;;;;;3.40;3.10;;;21.00;38.70;;;;;;10470244;28;20809;-79
2021/09/28 13:09:45;;;;;;;3.07;2.87;;;21.00;38.10;;;;;;10467497;28;20244;-77
2021/09/28 13:14:48;;;;;;;3.53;3.13;;;21.00;38.80;;;;;;10471996;28;21145;-81
2021/09/28 13:19:53;;;;;;;3.00;2.80;;;21.10;38.70;;;;;;10479204;28;20236;-79
2021/09/28 13:24:56;;;;;;;3.27;2.93;;;21.20;38.40;;;;;;10479953;28;20844;-78
2021/09/28 13:29:59;;;;;;;3.50;3.13;;;21.20;38.50;;;;;;10480018;28;20694;-78
2021/09/28 13:35:05;;;;;;;4.00;2.87;;;21.20;38.50;;;;;;10470777;28;20225;-80
2021/09/28 13:40:10;;;;;;;3.10;2.90;;;21.20;38.30;;;;;;10463545;28;21290;-78
2021/09/28 13:45:14;;;;;;;5.23;3.30;;;21.30;38.30;;;;;;10475220;28;20252;-79
2021/09/28 13:50:19;;;;;;;3.17;2.90;;;21.40;38.30;;;;;;10479740;28;20879;-77
2021/09/28 13:55:22;;;;;;;3.10;2.90;;;21.50;37.80;;;;;;10489043;28;20232;-80
2021/09/28 14:00:25;;;;;;;3.37;3.07;;;21.60;37.90;;;;;;10485942;28;20230;-77
2021/09/28 14:05:30;;;;;;;2.87;2.63;;;21.60;37.90;;;;;;10485388;28;20236;-78
2021/09/28 14:10:33;;;;;;;3.20;2.90;;;21.70;38.00;;;;;;10488771;28;20752;-77
2021/09/28 14:15:37;;;;;;;3.60;2.50;;;21.70;38.00;;;;;;10488432;28;20604;-76
2021/09/28 14:20:41;;;;;;;2.97;2.60;;;21.80;38.10;;;;;;10487932;28;20277;-79
2021/09/28 14:25:44;;;;;;;2.90;2.60;;;21.80;37.60;;;;;;10480918;28;20231;-79
2021/09/28 14:30:50;;;;;;;2.80;2.60;;;21.90;38.20;;;;;;10488934;28;20243;-81
2021/09/28 14:35:55;;;;;;;3.43;3.07;;;22.00;37.80;;;;;;10487953;28;20695;-77
2021/09/28 14:40:58;;;;;;;3.30;3.00;;;22.10;37.20;;;;;;10477873;28;20225;-77
2021/09/28 14:46:01;;;;;;;2.90;2.70;;;22.10;37.80;;;;;;10482473;28;20224;-78
2021/09/28 14:51:06;;;;;;;3.57;3.27;;;22.20;37.80;;;;;;10476730;28;20215;-78
2021/09/28 14:56:09;;;;;;;3.23;2.93;;;22.20;37.20;;;;;;10478707;28;20246;-79
2021/09/28 15:01:13;;;;;;;4.07;2.97;;;22.20;37.50;;;;;;10486005;28;20236;-78
2021/09/28 15:06:21;;;;;;;3.00;2.80;;;22.20;37.50;;;;;;10488417;28;20228;-78
2021/09/28 15:11:24;;;;;;;2.70;2.50;;;22.20;37.20;;;;;;10475096;28;20232;-79
2021/09/28 15:16:28;;;;;;;3.23;2.60;;;22.20;37.60;;;;;;10480766;28;20234;-79
2021/09/28 15:21:33;;;;;;;3.93;3.03;;;22.30;37.30;;;;;;10492331;28;20292;-79
2021/09/28 15:26:38;;;;;;;3.10;2.90;;;22.20;36.90;;;;;;10486791;28;20591;-79
2021/09/28 15:31:42;;;;;;;3.10;2.90;;;22.20;37.60;;;;;;10487431;28;20231;-78
2021/09/28 15:36:46;;;;;;;3.67;2.97;;;22.20;37.60;;;;;;10482027;28;20218;-79
2021/09/28 15:41:50;;;;;;;4.10;2.93;;;22.10;37.00;;;;;;10468672;28;20221;-79
2021/09/28 15:46:53;;;;;;;3.20;3.00;;;22.10;37.40;;;;;;10473539;28;20220;-80
2021/09/28 15:51:58;;;;;;;3.17;2.90;;;22.00;37.40;;;;;;10484804;28;20231;-79
2021/09/28 15:57:01;;;;;;;3.40;3.10;;;22.00;37.30;;;;;;10479191;28;20224;-79
2021/09/28 16:02:05;;;;;;;10.93;9.83;;;21.90;37.60;;;;;;10480346;28;20221;-80
2021/09/28 16:07:09;;;;;;;8.93;7.30;;;21.90;37.30;;;;;;10483197;28;20265;-79
2021/09/28 16:12:14;;;;;;;5.50;5.00;;;21.90;37.20;;;;;;10481864;28;20228;-78
2021/09/28 16:17:17;;;;;;;3.83;3.53;;;21.80;37.40;;;;;;10477338;28;20231;-78
2021/09/28 16:22:22;;;;;;;4.10;3.77;;;21.80;38.00;;;;;;10476555;28;20688;-79
2021/09/28 16:27:25;;;;;;;3.80;3.60;;;21.80;37.50;;;;;;10495334;28;20232;-79
2021/09/28 16:32:28;;;;;;;4.27;3.87;;;21.70;38.00;;;;;;10503206;28;20230;-78
2021/09/28 16:37:33;;;;;;;3.93;3.53;;;21.70;38.00;;;;;;10511899;28;20678;-78
2021/09/28 16:42:36;;;;;;;4.97;4.03;;;21.60;37.90;;;;;;10522847;28;20228;-79
2021/09/28 16:47:40;;;;;;;4.27;3.83;;;21.60;37.90;;;;;;10516619;28;20882;-79
2021/09/28 16:52:45;;;;;;;4.43;4.10;;;21.60;37.90;;;;;;10517268;28;20311;-78
2021/09/28 16:57:48;;;;;;;4.50;4.10;;;21.60;37.90;;;;;;10492922;28;20308;-80
2021/09/28 17:02:51;;;;;;;3.40;3.07;;;21.50;37.90;;;;;;10472415;28;20264;-78
2021/09/28 17:07:56;;;;;;;4.33;4.00;;;21.50;37.80;;;;;;10467422;28;20244;-78
2021/09/28 17:13:00;;;;;;;4.90;4.50;;;21.40;37.70;;;;;;10482394;28;20239;-78
2021/09/28 17:18:04;;;;;;;4.80;4.40;;;21.30;37.90;;;;;;10493400;28;20566;-76
2021/09/28 17:23:08;;;;;;;3.93;3.63;;;21.30;38.00;;;;;;10521959;28;20236;-77
2021/09/28 17:28:11;;;;;;;3.90;3.70;;;21.20;38.00;;;;;;10521511;28;20235;-77
2021/09/28 17:33:15;;;;;;;4.03;3.30;;;21.10;37.90;;;;;;10519828;28;20235;-77
2021/09/28 17:38:19;;;;;;;4.47;4.07;;;20.90;38.10;;;;;;10512229;28;20231;-77
2021/09/28 17:43:23;;;;;;;4.53;4.17;;;20.80;38.20;;;;;;10513765;28;20228;-77
2021/09/28 17:48:27;;;;;;;4.47;4.17;;;20.60;38.10;;;;;;10487006;28;20232;-78
2021/09/28 17:53:41;;;;;;;4.70;4.03;;;20.50;38.30;;;;;;10508151;28;20666;-77
2021/09/28 17:58:44;;;;;;;4.33;4.00;;;20.50;38.40;;;;;;10513674;28;20235;-78
2021/09/28 18:03:47;;;;;;;4.37;4.07;;;20.40;38.30;;;;;;10521375;28;20228;-78
2021/09/28 18:08:52;;;;;;;5.10;4.70;;;20.30;38.50;;;;;;10498791;28;20238;-78
2021/09/28 18:13:55;;;;;;;4.73;4.33;;;20.20;38.60;;;;;;10523392;28;20717;-79
2021/09/28 18:18:58;;;;;;;4.67;4.27;;;20.10;38.50;;;;;;10501696;28;20294;-78
2021/09/28 18:24:03;;;;;;;4.97;4.60;;;20.00;38.60;;;;;;10518575;28;20315;-77
2021/09/28 18:29:10;;;;;;;5.27;4.87;;;19.90;38.70;;;;;;10473222;28;20232;-77
2021/09/28 18:34:13;;;;;;;4.97;4.57;;;19.80;38.70;;;;;;10510350;28;20244;-77
2021/09/28 18:39:20;;;;;;;5.93;5.47;;;19.80;38.30;;;;;;10496620;28;20225;-78
2021/09/28 18:44:23;;;;;;;5.90;5.40;;;19.70;38.90;;;;;;10502232;28;20251;-77
2021/09/28 18:49:26;;;;;;;5.87;5.47;;;19.60;38.80;;;;;;10504772;28;20224;-80
2021/09/28 18:54:40;;;;;;;5.27;4.90;;;19.60;38.70;;;;;;10500532;28;20362;-80
2021/09/28 18:59:47;;;;;;;5.50;5.10;;;19.50;39.10;;;;;;10518388;28;20239;-79
2021/09/28 19:05:02;;;;;;;4.07;3.87;;;19.40;38.90;;;;;;10523075;28;20255;-79
2021/09/28 19:10:08;;;;;;;5.73;5.30;;;19.30;38.90;;;;;;10489583;28;20227;-79
2021/09/28 19:15:13;;;;;;;5.00;4.60;;;19.30;39.20;;;;;;10509194;28;20287;-78
2021/09/28 19:20:28;;;;;;;4.77;4.47;;;19.20;39.00;;;;;;10513684;28;20671;-79
2021/09/28 19:25:34;;;;;;;5.33;4.93;;;19.20;39.10;;;;;;10514902;28;20234;-79
2021/09/28 19:30:39;;;;;;;6.20;5.73;;;19.10;39.20;;;;;;10525162;28;20243;-78
2021/09/28 19:35:43;;;;;;;7.50;6.80;;;18.90;39.00;;;;;;10505432;28;20267;-78
2021/09/28 19:40:50;;;;;;;5.50;5.13;;;18.90;39.30;;;;;;10500476;28;20696;-78
2021/09/28 19:45:56;;;;;;;6.00;5.23;;;18.80;39.30;;;;;;10515211;28;20225;-78
2021/09/28 19:51:02;;;;;;;5.97;5.57;;;18.80;39.30;;;;;;10513438;28;20439;-78
2021/09/28 19:56:12;;;;;;;7.37;6.67;;;18.80;39.30;;;;;;10502126;28;20224;-79
2021/09/28 20:01:21;;;;;;;6.27;5.77;;;18.70;39.30;;;;;;10513136;28;20217;-79
2021/09/28 20:06:51;;;;;;;5.70;5.20;;;18.60;39.40;;;;;;10519373;28;20259;-79
2021/09/28 20:38:42;;;;;;;8.33;6.77;;;18.10;40.20;;;;;;10499799;28;20228;-80
2021/09/28 20:43:46;;;;;;;7.10;6.50;;;18.10;40.60;;;;;;10492644;28;20802;-78
2021/09/28 20:48:50;;;;;;;7.43;6.70;;;18.10;41.00;;;;;;10496219;28;20299;-78
2021/09/28 20:53:53;;;;;;;7.07;6.57;;;18.10;40.90;;;;;;10493118;28;20247;-78
2021/09/28 20:58:58;;;;;;;6.70;6.20;;;18.20;41.10;;;;;;10493456;28;20319;-78
2021/09/28 21:04:02;;;;;;;6.80;6.30;;;18.20;41.30;;;;;;10493944;28;20256;-79
2021/09/28 21:09:05;;;;;;;8.00;7.50;;;18.20;41.10;;;;;;10504225;28;20311;-79
2021/09/28 21:14:09;;;;;;;7.40;6.80;;;18.30;41.30;;;;;;10492370;28;20299;-78
2021/09/28 21:19:13;;;;;;;7.93;7.33;;;18.30;41.70;;;;;;10500766;28;20234;-78
2021/09/28 21:24:16;;;;;;;7.03;6.53;;;18.30;41.40;;;;;;10499835;28;20658;-78
2021/09/28 21:29:21;;;;;;;8.27;7.57;;;18.30;41.40;;;;;;10498711;28;20299;-78
2021/09/28 21:34:25;;;;;;;8.20;7.60;;;18.30;41.80;;;;;;10488508;28;20301;-79
2021/09/28 21:39:31;;;;;;;7.83;7.23;;;18.40;41.50;;;;;;10487498;28;20241;-78
2021/09/28 21:44:35;;;;;;;7.60;7.00;;;18.30;41.60;;;;;;10483021;28;20323;-78
2021/09/28 21:49:38;;;;;;;7.30;6.70;;;18.30;41.40;;;;;;10491763;28;20308;-78
2021/09/28 21:54:42;;;;;;;7.87;7.27;;;18.30;41.20;;;;;;10492387;28;20343;-78
2021/09/28 21:59:47;;;;;;;7.97;7.37;;;18.30;41.20;;;;;;10497065;28;20224;-79
2021/09/28 22:04:50;;;;;;;7.03;6.53;;;18.30;41.50;;;;;;10497925;28;20298;-78
2021/09/28 22:09:53;;;;;;;7.47;6.87;;;18.30;41.30;;;;;;10500673;28;20228;-78
2021/09/28 22:14:58;;;;;;;7.53;7.03;;;18.30;41.50;;;;;;10503092;28;20282;-79
2021/09/28 22:20:01;;;;;;;7.73;7.23;;;18.30;41.90;;;;;;10503075;28;20249;-78
2021/09/28 22:25:05;;;;;;;7.77;7.07;;;18.20;41.60;;;;;;10516798;28;20267;-78
2021/09/28 22:30:11;;;;;;;8.00;7.40;;;18.30;41.80;;;;;;10494177;28;20292;-78
2021/09/28 22:35:14;;;;;;;8.10;7.50;;;18.20;42.00;;;;;;10496098;28;20315;-78
2021/09/28 22:40:17;;;;;;;6.27;5.67;;;18.20;41.80;;;;;;10515089;28;20228;-78
2021/09/28 22:45:22;;;;;;;8.17;7.47;;;18.20;41.80;;;;;;10489057;28;20782;-78
2021/09/28 22:50:26;;;;;;;7.63;6.90;;;18.20;42.40;;;;;;10501355;28;20293;-78
2021/09/28 22:55:29;;;;;;;6.10;5.70;;;18.20;42.00;;;;;;10506251;28;20267;-79
2021/09/28 23:00:34;;;;;;;6.90;6.33;;;18.20;42.20;;;;;;10502268;28;20795;-80
2021/09/28 23:05:37;;;;;;;6.07;5.53;;;18.20;42.40;;;;;;10504018;28;20286;-79
2021/09/28 23:10:40;;;;;;;6.93;6.43;;;18.30;42.30;;;;;;10513613;28;20926;-80
2021/09/28 23:15:45;;;;;;;7.03;6.53;;;18.30;42.20;;;;;;10518008;28;20773;-80
2021/09/28 23:20:48;;;;;;;6.90;6.40;;;18.30;42.50;;;;;;10510084;28;20592;-80
2021/09/28 23:25:51;;;;;;;6.73;6.27;;;18.40;42.30;;;;;;10521119;28;20242;-80
2021/09/28 23:30:56;;;;;;;7.03;6.43;;;18.40;42.30;;;;;;10538962;28;20834;-80
2021/09/28 23:35:59;;;;;;;7.67;7.07;;;18.40;42.50;;;;;;10541145;28;20235;-80
2021/09/28 23:41:02;;;;;;;7.23;6.73;;;18.40;42.50;;;;;;10519424;28;20226;-80
2021/09/28 23:46:07;;;;;;;7.40;6.70;;;18.40;42.50;;;;;;10508083;28;20237;-80
2021/09/28 23:51:10;;;;;;;7.27;6.67;;;18.40;42.80;;;;;;10506274;28;20302;-80
2021/09/28 23:56:14;;;;;;;5.63;5.23;;;18.40;42.30;;;;;;10519554;28;20255;-79
